createdAt,value
2017-07-26T00:01:17.734Z,8.20
2017-07-26T00:03:45.162Z,9.40
2017-07-26T00:06:12.642Z,6.60
2017-07-26T00:08:40.832Z,7.10
2017-07-26T00:11:09.053Z,6.03
2017-07-26T00:13:36.476Z,5.27
2017-07-26T00:16:03.911Z,6.23
2017-07-26T00:18:32.113Z,6.60
2017-07-26T00:20:59.546Z,8.50
2017-07-26T00:23:27.739Z,7.93
2017-07-26T00:25:55.164Z,6.03
2017-07-26T00:28:23.367Z,6.20
2017-07-26T00:30:50.800Z,6.13
2017-07-26T00:33:19.009Z,6.73
2017-07-26T00:35:46.440Z,6.70
2017-07-26T00:38:13.865Z,5.60
2017-07-26T00:40:41.296Z,7.30
2017-07-26T00:43:08.749Z,7.77
2017-07-26T00:45:36.177Z,9.57
2017-07-26T00:48:03.878Z,9.23
2017-07-26T00:50:31.301Z,4.97
2017-07-26T00:52:58.729Z,4.87
2017-07-26T00:55:26.934Z,6.13
2017-07-26T00:57:54.364Z,12.60
2017-07-26T01:00:21.804Z,9.60
2017-07-26T01:02:49.241Z,9.20
2017-07-26T01:05:16.664Z,7.30
2017-07-26T01:07:44.087Z,5.63
2017-07-26T01:10:12.293Z,5.80
2017-07-26T01:12:39.730Z,14.60
2017-07-26T01:15:07.181Z,13.93
2017-07-26T01:17:35.368Z,7.27
2017-07-26T01:20:02.795Z,6.93
2017-07-26T01:22:30.220Z,6.73
2017-07-26T01:24:57.649Z,6.97
2017-07-26T01:27:25.093Z,9.67
2017-07-26T01:29:53.280Z,6.80
2017-07-26T01:32:20.758Z,7.23
2017-07-26T01:34:48.184Z,7.50
2017-07-26T01:37:15.618Z,7.00
2017-07-26T01:39:43.044Z,6.70
2017-07-26T01:42:10.484Z,8.50
2017-07-26T01:44:37.910Z,7.37
2017-07-26T01:47:06.126Z,7.70
2017-07-26T01:49:33.567Z,7.10
2017-07-26T01:52:00.990Z,8.23
2017-07-26T01:54:29.200Z,9.67
2017-07-26T01:56:56.616Z,8.60
2017-07-26T01:59:24.816Z,13.10
2017-07-26T02:01:52.248Z,9.23
2017-07-26T02:04:20.445Z,7.97
2017-07-26T02:06:47.868Z,8.97
2017-07-26T02:09:15.330Z,16.53
2017-07-26T02:11:42.753Z,8.30
2017-07-26T02:14:10.192Z,7.33
2017-07-26T02:16:37.624Z,8.20
2017-07-26T02:19:05.051Z,9.50
2017-07-26T02:21:33.251Z,12.67
2017-07-26T02:24:00.688Z,12.63
2017-07-26T02:26:28.887Z,9.60
2017-07-26T02:28:56.355Z,15.93
2017-07-26T02:31:23.781Z,14.03
2017-07-26T02:33:51.984Z,13.33
2017-07-26T02:36:19.429Z,12.60
2017-07-26T02:38:46.856Z,15.87
2017-07-26T02:41:14.296Z,14.07
2017-07-26T02:43:41.743Z,14.47
2017-07-26T02:46:09.183Z,16.87
2017-07-26T02:48:36.611Z,19.27
2017-07-26T02:51:04.059Z,12.87
2017-07-26T02:53:32.251Z,17.50
2017-07-26T02:55:59.694Z,19.13
2017-07-26T02:58:27.134Z,24.70
2017-07-26T03:00:54.568Z,17.50
2017-07-26T03:03:22.005Z,15.43
2017-07-26T03:05:49.451Z,18.23
2017-07-26T03:08:16.880Z,17.17
2017-07-26T03:10:44.324Z,15.60
2017-07-26T03:13:17.343Z,17.27
2017-07-26T03:15:44.787Z,17.80
2017-07-26T03:18:12.220Z,15.70
2017-07-26T03:20:40.428Z,17.73
2017-07-26T03:23:07.865Z,17.10
2017-07-26T03:25:36.076Z,17.40
2017-07-26T03:28:03.523Z,14.30
2017-07-26T03:30:30.950Z,22.67
2017-07-26T03:33:00.149Z,25.87
2017-07-26T03:35:28.344Z,19.53
2017-07-26T03:37:55.787Z,27.00
2017-07-26T03:40:23.988Z,20.73
2017-07-26T03:42:51.425Z,18.50
2017-07-26T03:45:18.861Z,18.97
2017-07-26T03:47:47.068Z,21.63
2017-07-26T03:50:14.508Z,22.60
2017-07-26T03:52:46.052Z,21.27
2017-07-26T03:55:14.266Z,23.20
2017-07-26T03:57:41.716Z,23.73
2017-07-26T04:00:09.158Z,21.43
2017-07-26T04:02:36.603Z,23.70
2017-07-26T04:05:04.809Z,22.87
2017-07-26T04:07:32.268Z,24.43
2017-07-26T04:09:59.699Z,31.20
2017-07-26T04:12:27.136Z,27.63
2017-07-26T04:14:55.342Z,33.50
2017-07-26T04:17:22.772Z,28.67
2017-07-26T04:19:50.987Z,28.60
2017-07-26T04:22:18.424Z,27.60
2017-07-26T04:24:45.864Z,25.80
2017-07-26T04:27:13.322Z,63.20
2017-07-26T04:29:40.744Z,26.40
2017-07-26T04:32:08.177Z,29.90
2017-07-26T04:34:35.626Z,29.03
2017-07-26T04:37:03.065Z,29.70
2017-07-26T04:39:30.508Z,32.40
2017-07-26T04:41:57.944Z,33.30
2017-07-26T04:44:25.394Z,31.50
2017-07-26T04:46:52.828Z,31.17
2017-07-26T04:49:20.300Z,38.37
2017-07-26T04:51:47.739Z,34.00
2017-07-26T04:54:15.181Z,30.00
2017-07-26T04:56:42.638Z,37.53
2017-07-26T04:59:10.064Z,28.60
2017-07-26T05:01:37.514Z,32.60
2017-07-26T05:04:05.717Z,34.87
2017-07-26T05:06:33.154Z,30.47
2017-07-26T05:09:00.596Z,41.57
2017-07-26T05:11:28.819Z,35.87
2017-07-26T05:13:56.267Z,38.33
2017-07-26T05:16:23.716Z,33.87
2017-07-26T05:18:51.153Z,36.23
2017-07-26T05:21:18.601Z,32.03
2017-07-26T05:23:46.032Z,39.80
2017-07-26T05:26:13.479Z,35.63
2017-07-26T05:28:40.913Z,33.13
2017-07-26T05:31:08.354Z,38.00
2017-07-26T05:33:35.783Z,37.70
2017-07-26T05:36:03.996Z,33.43
2017-07-26T05:38:31.428Z,37.37
2017-07-26T05:40:58.902Z,31.80
2017-07-26T05:43:26.332Z,34.57
2017-07-26T05:45:54.536Z,36.37
2017-07-26T05:48:21.972Z,35.30
2017-07-26T05:50:49.409Z,35.33
2017-07-26T05:53:16.849Z,35.90
2017-07-26T05:55:44.280Z,30.10
2017-07-26T05:58:11.741Z,35.77
2017-07-26T06:00:39.171Z,37.80
2017-07-26T06:03:06.605Z,35.70
2017-07-26T06:05:34.827Z,34.03
2017-07-26T06:08:02.349Z,34.43
2017-07-26T06:10:29.792Z,33.53
2017-07-26T06:12:57.993Z,32.23
2017-07-26T06:15:25.421Z,33.10
2017-07-26T06:17:53.726Z,32.43
2017-07-26T06:20:21.157Z,30.37
2017-07-26T06:22:49.357Z,30.10
2017-07-26T06:25:16.796Z,33.63
2017-07-26T06:27:44.341Z,33.47
2017-07-26T06:30:12.558Z,36.27
2017-07-26T06:32:39.992Z,42.13
2017-07-26T06:35:07.434Z,33.73
2017-07-26T06:37:34.869Z,31.97
2017-07-26T06:40:02.356Z,40.30
2017-07-26T06:42:30.547Z,36.30
2017-07-26T06:44:58.092Z,32.70
2017-07-26T06:47:25.537Z,42.37
2017-07-26T06:49:52.978Z,37.50
2017-07-26T06:52:20.408Z,34.93
2017-07-26T06:54:51.705Z,38.10
2017-07-26T06:57:19.917Z,34.70
2017-07-26T06:59:47.584Z,21.83
2017-07-26T07:02:15.041Z,18.67
2017-07-26T07:04:42.480Z,16.73
2017-07-26T07:07:09.932Z,23.13
2017-07-26T07:09:37.460Z,19.27
2017-07-26T07:12:05.663Z,15.77
2017-07-26T07:14:33.093Z,10.37
2017-07-26T07:17:01.296Z,11.30
2017-07-26T07:19:28.724Z,8.30
2017-07-26T07:21:56.929Z,10.17
2017-07-26T07:24:24.353Z,6.60
2017-07-26T07:26:51.788Z,8.03
2017-07-26T07:29:19.225Z,6.33
2017-07-26T07:31:46.660Z,7.23
2017-07-26T07:34:14.080Z,7.43
2017-07-26T07:36:42.276Z,7.60
2017-07-26T07:39:09.705Z,7.13
2017-07-26T07:41:37.140Z,7.07
2017-07-26T07:44:04.573Z,9.20
2017-07-26T07:46:32.004Z,6.97
2017-07-26T07:48:59.433Z,6.57
2017-07-26T07:51:30.375Z,10.13
2017-07-26T07:53:57.804Z,7.20
2017-07-26T07:56:25.254Z,8.60
2017-07-26T07:58:52.676Z,9.87
2017-07-26T08:01:20.109Z,8.67
2017-07-26T08:04:00.793Z,9.10
2017-07-26T08:06:28.223Z,8.43
2017-07-26T08:08:55.689Z,9.23
2017-07-26T08:11:23.884Z,9.00
2017-07-26T08:13:51.325Z,10.77
2017-07-26T08:16:19.524Z,8.60
2017-07-26T08:18:46.962Z,12.10
2017-07-26T08:21:15.172Z,10.00
2017-07-26T08:23:43.611Z,16.50
2017-07-26T08:26:11.046Z,11.40
2017-07-26T08:28:38.502Z,15.10
2017-07-26T08:31:05.930Z,11.93
2017-07-26T08:33:33.393Z,15.40
2017-07-26T08:36:00.905Z,17.17
2017-07-26T08:38:28.340Z,19.33
2017-07-26T08:40:56.553Z,25.90
2017-07-26T08:43:23.968Z,19.70
2017-07-26T08:45:51.408Z,23.67
2017-07-26T08:48:18.850Z,22.73
2017-07-26T08:50:46.293Z,24.07
2017-07-26T08:53:13.724Z,24.37
2017-07-26T08:55:41.160Z,20.90
2017-07-26T08:58:08.601Z,22.27
2017-07-26T09:00:36.049Z,23.00
2017-07-26T09:03:03.489Z,23.80
2017-07-26T09:05:30.935Z,27.40
2017-07-26T09:07:58.362Z,24.47
2017-07-26T09:10:25.804Z,21.17
2017-07-26T09:12:54.000Z,21.43
2017-07-26T09:15:21.449Z,21.87
2017-07-26T09:17:48.888Z,20.63
2017-07-26T09:20:17.093Z,22.43
2017-07-26T09:22:44.520Z,24.27
2017-07-26T09:25:12.728Z,25.80
2017-07-26T09:27:40.162Z,22.07
2017-07-26T09:30:08.644Z,20.20
2017-07-26T09:32:36.079Z,20.70
2017-07-26T09:35:03.535Z,20.80
2017-07-26T09:37:32.028Z,19.13
2017-07-26T09:40:00.233Z,17.60
2017-07-26T09:42:27.670Z,18.07
2017-07-26T09:44:55.869Z,18.63
2017-07-26T09:47:23.314Z,18.17
2017-07-26T09:49:50.749Z,18.33
2017-07-26T09:52:19.024Z,17.40
2017-07-26T09:55:02.872Z,17.13
2017-07-26T09:57:31.087Z,18.53
2017-07-26T09:59:58.508Z,18.60
2017-07-26T10:02:26.718Z,17.17
2017-07-26T10:04:54.164Z,15.87
2017-07-26T10:07:21.593Z,20.27
2017-07-26T10:09:49.793Z,19.67
2017-07-26T10:12:17.236Z,14.63
2017-07-26T10:14:44.670Z,14.43
2017-07-26T10:17:12.875Z,14.03
2017-07-26T10:19:40.309Z,14.77
2017-07-26T10:22:08.519Z,13.63
2017-07-26T10:24:40.318Z,15.27
2017-07-26T10:27:08.451Z,13.70
2017-07-26T10:29:35.983Z,14.53
2017-07-26T10:32:12.412Z,12.13
2017-07-26T10:34:39.888Z,16.33
2017-07-26T10:37:08.117Z,15.07
2017-07-26T10:39:35.552Z,12.73
2017-07-26T10:42:02.989Z,11.97
2017-07-26T10:44:31.188Z,14.07
2017-07-26T10:46:58.616Z,11.83
2017-07-26T10:49:26.821Z,10.40
2017-07-26T10:51:54.256Z,11.43
2017-07-26T10:54:29.969Z,12.97
2017-07-26T10:56:57.412Z,12.87
2017-07-26T10:59:24.856Z,12.37
2017-07-26T11:01:52.284Z,11.00
2017-07-26T11:04:24.408Z,12.90
2017-07-26T11:06:51.848Z,11.97
2017-07-26T11:09:19.280Z,10.10
2017-07-26T11:11:46.714Z,10.60
2017-07-26T11:14:14.914Z,12.00
2017-07-26T11:16:42.337Z,9.90
2017-07-26T11:19:10.537Z,9.93
2017-07-26T11:21:37.955Z,8.73
2017-07-26T11:24:06.156Z,12.53
2017-07-26T11:26:33.591Z,13.50
2017-07-26T11:29:01.805Z,9.37
2017-07-26T11:31:29.255Z,9.03
2017-07-26T11:33:56.680Z,8.90
2017-07-26T11:36:24.889Z,10.77
2017-07-26T11:38:52.313Z,8.60
2017-07-26T11:41:20.508Z,8.97
2017-07-26T11:43:47.935Z,10.73
2017-07-26T11:46:15.365Z,8.60
2017-07-26T11:48:42.806Z,10.33
2017-07-26T11:51:10.235Z,8.20
2017-07-26T11:53:37.657Z,9.93
2017-07-26T11:56:05.132Z,14.40
2017-07-26T11:58:33.320Z,7.23
2017-07-26T12:01:00.768Z,8.40
2017-07-26T12:03:28.953Z,8.27
2017-07-26T12:05:56.393Z,6.33
2017-07-26T12:08:24.592Z,9.23
2017-07-26T12:10:52.016Z,7.30
2017-07-26T12:13:20.208Z,8.20
2017-07-26T12:15:47.645Z,5.10
2017-07-26T12:18:15.069Z,6.17
2017-07-26T12:20:42.517Z,6.33
2017-07-26T12:23:11.824Z,8.57
2017-07-26T12:25:39.284Z,5.20
2017-07-26T12:28:06.729Z,5.50
2017-07-26T12:30:34.144Z,5.03
2017-07-26T12:33:02.358Z,12.97
2017-07-26T12:35:29.784Z,5.20
2017-07-26T12:37:57.217Z,4.70
2017-07-26T12:40:24.645Z,5.00
2017-07-26T12:42:52.081Z,4.40
2017-07-26T12:45:19.520Z,7.33
2017-07-26T12:47:46.960Z,4.53
2017-07-26T12:50:38.385Z,4.50
2017-07-26T12:53:06.636Z,4.40
2017-07-26T12:55:34.067Z,6.90
2017-07-26T12:58:01.518Z,4.40
2017-07-26T13:00:29.865Z,6.00
2017-07-26T13:02:58.040Z,9.33
2017-07-26T13:05:25.472Z,6.67
2017-07-26T13:07:52.891Z,7.53
2017-07-26T13:10:20.340Z,7.67
2017-07-26T13:12:47.816Z,4.90
2017-07-26T13:15:15.254Z,5.63
2017-07-26T13:17:42.680Z,5.67
2017-07-26T13:20:10.116Z,9.63
2017-07-26T13:22:38.309Z,7.40
2017-07-26T13:25:05.741Z,8.33
2017-07-26T13:27:33.937Z,9.20
2017-07-26T13:30:01.364Z,8.97
2017-07-26T13:32:29.556Z,6.87
2017-07-26T13:34:56.989Z,8.20
2017-07-26T13:37:24.412Z,8.43
2017-07-26T13:39:51.852Z,8.67
2017-07-26T13:42:19.284Z,8.70
2017-07-26T13:44:46.704Z,9.13
2017-07-26T13:47:14.140Z,8.97
2017-07-26T13:49:41.576Z,11.47
2017-07-26T13:52:09.016Z,8.63
2017-07-26T13:54:36.444Z,10.13
2017-07-26T13:57:03.875Z,11.07
2017-07-26T13:59:31.316Z,11.47
2017-07-26T14:01:58.748Z,9.70
2017-07-26T14:04:26.177Z,9.10
2017-07-26T14:06:54.385Z,15.47
2017-07-26T14:09:21.809Z,10.37
2017-07-26T14:11:50.017Z,12.50
2017-07-26T14:14:17.447Z,9.83
2017-07-26T14:16:44.900Z,10.80
2017-07-26T14:19:13.088Z,8.90
2017-07-26T14:21:40.524Z,9.07
2017-07-26T14:24:07.988Z,8.43
2017-07-26T14:26:36.179Z,8.60
2017-07-26T14:29:03.636Z,7.00
2017-07-26T14:31:31.068Z,8.17
2017-07-26T14:33:58.512Z,9.33
2017-07-26T14:36:25.944Z,6.90
2017-07-26T14:38:53.377Z,8.03
2017-07-26T14:41:20.809Z,8.37
2017-07-26T14:43:49.006Z,9.73
2017-07-26T14:46:16.436Z,9.27
2017-07-26T14:48:44.657Z,10.17
2017-07-26T14:51:12.122Z,10.80
2017-07-26T14:53:42.909Z,9.93
2017-07-26T14:56:10.313Z,10.30
2017-07-26T14:58:37.746Z,9.30
2017-07-26T15:01:05.163Z,9.93
2017-07-26T15:03:33.368Z,9.03
2017-07-26T15:06:00.792Z,9.63
2017-07-26T15:08:28.245Z,16.13
2017-07-26T15:10:55.678Z,11.77
2017-07-26T15:13:23.104Z,11.73
2017-07-26T15:15:50.544Z,12.07
2017-07-26T15:18:17.968Z,11.00
2017-07-26T15:20:45.401Z,9.70
2017-07-26T15:23:12.823Z,11.50
2017-07-26T15:25:40.261Z,13.47
2017-07-26T15:28:08.456Z,11.93
2017-07-26T15:30:35.897Z,18.83
2017-07-26T15:33:04.130Z,9.83
2017-07-26T15:35:31.565Z,11.67
2017-07-26T15:37:58.993Z,10.43
2017-07-26T15:40:26.424Z,8.47
2017-07-26T15:42:53.848Z,6.80
2017-07-26T15:45:21.289Z,8.20
2017-07-26T15:47:48.715Z,6.97
2017-07-26T15:50:16.142Z,7.50
2017-07-26T15:52:43.573Z,7.73
2017-07-26T15:55:11.005Z,5.80
2017-07-26T15:57:38.444Z,6.00
2017-07-26T16:00:05.869Z,7.03
2017-07-26T16:02:33.296Z,6.60
2017-07-26T16:05:00.715Z,11.43
2017-07-26T16:07:28.148Z,5.60
2017-07-26T16:09:56.367Z,5.03
2017-07-26T16:12:23.779Z,7.87
2017-07-26T16:14:51.200Z,7.20
2017-07-26T16:17:18.627Z,9.33
2017-07-26T16:19:46.137Z,10.10
2017-07-26T16:22:13.599Z,6.23
2017-07-26T16:24:41.017Z,6.70
2017-07-26T16:27:08.453Z,5.23
2017-07-26T16:29:35.883Z,7.50
2017-07-26T16:32:04.067Z,5.10
2017-07-26T16:34:31.505Z,5.40
2017-07-26T16:36:58.919Z,5.50
2017-07-26T16:39:26.359Z,5.20
2017-07-26T16:41:53.776Z,5.60
2017-07-26T16:44:21.241Z,5.83
2017-07-26T16:46:49.428Z,6.87
2017-07-26T16:49:16.865Z,6.33
2017-07-26T16:51:44.289Z,10.50
2017-07-26T16:54:11.732Z,5.33
2017-07-26T16:56:39.171Z,7.00
2017-07-26T16:59:06.694Z,5.47
2017-07-26T17:01:34.156Z,6.20
2017-07-26T17:04:03.344Z,6.83
2017-07-26T17:06:30.773Z,5.07
2017-07-26T17:08:58.235Z,6.33
2017-07-26T17:11:25.716Z,4.60
2017-07-26T17:13:53.164Z,6.60
2017-07-26T17:16:20.598Z,6.47
2017-07-26T17:18:48.050Z,5.20
2017-07-26T17:21:15.480Z,4.57
2017-07-26T17:23:42.913Z,7.43
2017-07-26T17:26:10.413Z,7.33
2017-07-26T17:28:37.820Z,5.33
2017-07-26T17:31:06.016Z,5.07
2017-07-26T17:33:33.444Z,5.67
2017-07-26T17:36:00.921Z,7.00
2017-07-26T17:38:30.204Z,6.00
2017-07-26T17:40:58.486Z,5.27
2017-07-26T17:43:26.676Z,5.37
2017-07-26T17:45:54.108Z,9.00
2017-07-26T17:48:21.540Z,8.63
2017-07-26T17:50:48.978Z,5.67
2017-07-26T17:53:16.420Z,6.10
2017-07-26T17:55:43.850Z,6.40
2017-07-26T17:58:12.062Z,6.93
2017-07-26T18:00:39.499Z,5.60
2017-07-26T18:03:06.912Z,6.53
2017-07-26T18:05:34.353Z,6.00
2017-07-26T18:08:01.837Z,5.37
2017-07-26T18:10:29.264Z,6.07
2017-07-26T18:12:56.703Z,9.00
2017-07-26T18:15:24.136Z,7.17
2017-07-26T18:17:52.337Z,7.07
2017-07-26T18:20:19.764Z,8.87
2017-07-26T18:22:47.196Z,7.93
2017-07-26T18:25:14.617Z,6.40
2017-07-26T18:27:42.065Z,8.90
2017-07-26T18:30:09.493Z,8.07
2017-07-26T18:32:36.923Z,7.20
2017-07-26T18:35:04.344Z,7.10
2017-07-26T18:37:31.788Z,9.73
2017-07-26T18:39:59.227Z,9.27
2017-07-26T18:42:26.693Z,6.37
2017-07-26T18:44:54.215Z,9.17
2017-07-26T18:47:23.410Z,5.57
2017-07-26T18:49:51.613Z,6.70
2017-07-26T18:52:19.140Z,8.07
2017-07-26T18:54:46.566Z,8.30
2017-07-26T18:57:13.984Z,6.50
2017-07-26T18:59:42.468Z,8.13
2017-07-26T19:02:09.894Z,8.10
2017-07-26T19:04:38.087Z,7.30
2017-07-26T19:07:05.511Z,8.00
2017-07-26T19:09:32.988Z,8.80
2017-07-26T19:12:02.177Z,13.20
2017-07-26T19:14:29.613Z,11.70
2017-07-26T19:16:57.042Z,5.63
2017-07-26T19:19:24.552Z,10.93
2017-07-26T19:21:52.820Z,7.57
2017-07-26T19:24:20.265Z,10.80
2017-07-26T19:26:47.692Z,7.77
2017-07-26T19:29:15.119Z,10.43
2017-07-26T19:31:42.580Z,6.30
2017-07-26T19:34:10.019Z,9.30
2017-07-26T19:36:38.338Z,7.70
2017-07-26T19:39:06.769Z,13.07
2017-07-26T19:41:34.983Z,11.90
2017-07-26T19:44:02.409Z,7.37
2017-07-26T19:46:30.672Z,8.03
2017-07-26T19:48:58.097Z,7.73
2017-07-26T19:51:25.533Z,8.83
2017-07-26T19:53:53.044Z,8.93
2017-07-26T19:56:20.505Z,8.80
2017-07-26T19:58:47.957Z,7.40
2017-07-26T20:01:15.420Z,9.83
2017-07-26T20:03:42.854Z,8.47
2017-07-26T20:06:10.288Z,10.50
2017-07-26T20:08:37.797Z,10.37
2017-07-26T20:11:05.244Z,9.07
2017-07-26T20:13:32.705Z,10.50
2017-07-26T20:16:00.174Z,8.40
2017-07-26T20:18:28.369Z,8.53
2017-07-26T20:20:55.796Z,7.73
2017-07-26T20:23:23.231Z,9.63
2017-07-26T20:25:50.661Z,9.10
2017-07-26T20:28:18.160Z,6.23
2017-07-26T20:30:45.584Z,6.43
2017-07-26T20:33:13.076Z,5.73
2017-07-26T20:35:41.273Z,6.93
2017-07-26T20:38:08.704Z,6.27
2017-07-26T20:40:36.128Z,5.87
2017-07-26T20:43:03.653Z,4.63
2017-07-26T20:45:31.080Z,7.10
2017-07-26T20:47:59.289Z,5.70
2017-07-26T20:50:26.717Z,5.97
2017-07-26T20:52:54.919Z,6.63
2017-07-26T20:55:22.336Z,6.27
2017-07-26T20:57:49.768Z,7.70
2017-07-26T21:00:17.192Z,7.87
2017-07-26T21:02:44.625Z,8.10
2017-07-26T21:05:12.811Z,8.60
2017-07-26T21:07:40.244Z,8.57
2017-07-26T21:10:08.428Z,10.23
2017-07-26T21:12:35.865Z,7.53
2017-07-26T21:15:03.298Z,6.30
2017-07-26T21:17:30.827Z,8.20
2017-07-26T21:19:58.254Z,7.63
2017-07-26T21:22:26.465Z,7.10
2017-07-26T21:24:53.879Z,6.40
2017-07-26T21:27:22.076Z,7.13
2017-07-26T21:29:49.513Z,6.47
2017-07-26T21:32:16.936Z,8.47
2017-07-26T21:34:44.377Z,14.07
2017-07-26T21:37:11.807Z,13.47
2017-07-26T21:39:39.242Z,7.03
2017-07-26T21:42:07.436Z,10.80
2017-07-26T21:44:34.871Z,12.13
2017-07-26T21:47:03.136Z,9.13
2017-07-26T21:49:30.601Z,23.00
2017-07-26T21:51:58.868Z,8.70
2017-07-26T21:54:26.296Z,14.00
2017-07-26T21:56:53.767Z,7.70
2017-07-26T21:59:21.200Z,8.70
2017-07-26T22:01:48.633Z,7.80
2017-07-26T22:04:16.075Z,10.97
2017-07-26T22:06:43.492Z,6.00
2017-07-26T22:09:10.930Z,10.70
2017-07-26T22:11:38.365Z,10.27
2017-07-26T22:14:05.796Z,7.83
2017-07-26T22:16:34.005Z,12.23
2017-07-26T22:19:01.428Z,7.87
2017-07-26T22:21:29.615Z,8.40
2017-07-26T22:23:57.057Z,13.23
2017-07-26T22:26:25.239Z,9.90
2017-07-26T22:28:52.669Z,8.10
2017-07-26T22:31:20.102Z,6.93
2017-07-26T22:33:47.522Z,7.30
2017-07-26T22:36:14.945Z,9.40
2017-07-26T22:38:43.128Z,9.70
2017-07-26T22:41:11.334Z,11.20
2017-07-26T22:43:38.751Z,15.60
2017-07-26T22:46:06.957Z,9.00
2017-07-26T22:48:34.393Z,10.27
2017-07-26T22:51:02.599Z,28.03
2017-07-26T22:53:30.023Z,10.97
2017-07-26T22:55:57.461Z,9.43
2017-07-26T22:58:24.907Z,15.07
2017-07-26T23:00:52.333Z,10.53
2017-07-26T23:03:19.763Z,8.87
2017-07-26T23:05:47.196Z,11.00
2017-07-26T23:08:14.617Z,6.40
2017-07-26T23:10:42.112Z,6.60
2017-07-26T23:13:10.304Z,11.23
2017-07-26T23:15:37.748Z,9.70
2017-07-26T23:18:06.684Z,8.87
2017-07-26T23:20:34.125Z,7.60
2017-07-26T23:23:02.304Z,7.33
2017-07-26T23:25:29.728Z,8.90
2017-07-26T23:27:57.932Z,7.60
2017-07-26T23:30:25.362Z,10.07
2017-07-26T23:32:53.564Z,7.43
2017-07-26T23:35:20.984Z,6.00
2017-07-26T23:37:49.183Z,13.20
2017-07-26T23:40:16.596Z,7.60
2017-07-26T23:42:44.025Z,7.13
2017-07-26T23:45:11.443Z,6.77
2017-07-26T23:47:38.885Z,7.20
2017-07-26T23:50:07.081Z,9.83
2017-07-26T23:52:35.271Z,9.70
2017-07-26T23:55:02.697Z,8.03
2017-07-26T23:57:30.908Z,8.13
2017-07-26T23:59:58.333Z,6.20
